Latest Coastal Weather Observations for Kingfish B

IDV60701

Issued at 9:21 am EST Saturday 5 September 2015 (issued every 10 minutes, with the page automatically refreshed every 10 minutes)

About coastal observations | Map of coastal stations | Coastal observations for VIC | Marine services | Other Formats
Station Details ID: 400139 Name: KINGFISH B (PLATFORM) Lat: -38.60 Lon: 148.19 Height: 31.4 m
Data from the previous 72 hours. | See also: Recent months for locations in Victoria
Date/Time
EST
Temp

°C
Wind Pressure Rain
since 9am
mm
Weather Cloud Vis
km
Sea
Height
m
Swell
Dir
 
Speed
knots
Gust
knots
hPa Trend Height
m
Period
s
Dir
05/08:00am 13.9 SW 18 21 1022.6 - - - - - - - - -
05/07:50am 13.7 SW 18 21 1022.6 - - - - - - - - -
05/07:40am 13.6 SW 18 22 1022.7 - - - - - - - - -
05/07:30am 13.6 SW 18 21 1022.7 - - - - - - - - -
05/07:20am 13.5 SW 18 23 1022.6 - - - - - - - - -
05/07:10am 12.9 SW 19 22 1022.5 - - - - - - - - -
05/07:00am 12.9 SW 17 21 1022.5 - - - - - - - - -
05/06:50am 12.8 SW 16 21 1022.4 - - - - - - - - -
05/06:40am 12.8 SW 18 22 1022.0 - - - - - - - - -
05/06:30am 12.4 SW 19 24 1021.8 - - - - - - - - -
05/06:20am 11.9 SW 21 24 1021.9 - - - - - - - - -
05/06:10am 11.9 SW 19 23 1022.0 - - - - - - - - -
05/06:00am 11.9 SW 17 22 1021.8 - - - - - - - - -
05/05:50am 12.1 SW 19 23 1021.4 - - - - - - - - -
05/05:40am 12.2 SW 18 23 1021.2 - - - - - - - - -
05/05:30am 12.1 SW 18 22 1021.0 - - - - - - - - -
05/05:20am 11.8 SW 18 21 1021.1 - - - - - - - - -
05/05:10am 11.8 SW 20 26 1020.8 - - - - - - - - -
05/05:00am 11.9 SW 20 24 1020.8 - - - - - - - - -
05/04:50am 12.0 SW 19 23 1020.7 - - - - - - - - -
05/04:40am 12.1 SW 18 22 1020.7 - - - - - - - - -
05/04:30am 12.0 SW 18 21 1020.5 - - - - - - - - -
05/04:20am 11.9 SW 21 26 1020.4 - - - - - - - - -
05/04:10am 11.8 SW 21 27 1020.5 - - - - - - - - -
05/04:00am 11.7 SW 20 24 1020.3 - - - - - - - - -
05/03:50am 11.8 SW 20 26 1020.2 - - - - - - - - -
05/03:40am 11.7 SW 18 22 1020.3 - - - - - - - - -
05/03:30am 11.6 SW 18 21 1020.3 - - - - - - - - -
05/03:20am 11.5 SW 19 23 1020.4 - - - - - - - - -
05/03:10am 11.4 SW 21 24 1020.0 - - - - - - - - -
05/03:00am 11.4 SW 21 27 1020.0 - - - - - - - - -
05/02:50am 11.6 SW 21 25 1019.9 - - - - - - - - -
05/02:40am 11.7 SW 18 23 1020.0 - - - - - - - - -
05/02:30am 11.8 WSW 20 23 1019.9 - - - - - - - - -
05/02:20am 11.9 WSW 20 23 1019.9 - - - - - - - - -
05/02:10am 11.8 WSW 19 23 1019.9 - - - - - - - - -
05/02:00am 11.9 WSW 19 23 1020.0 - - - - - - - - -
05/01:50am 12.0 WSW 20 23 1020.2 - - - - - - - - -
05/01:40am 12.0 WSW 20 24 1020.2 - - - - - - - - -
05/01:30am 11.9 WSW 22 28 1020.3 - - - - - - - - -
05/01:20am 12.0 WSW 20 24 1020.4 - - - - - - - - -
05/01:10am 11.9 WSW 19 23 1020.6 - - - - - - - - -
05/01:00am 12.1 WSW 21 25 1020.6 - - - - - - - - -
05/12:50am 12.2 WSW 21 25 1020.6 - - - - - - - - -
05/12:40am 12.6 WSW 19 22 1020.7 - - - - - - - - -
05/12:30am 12.0 WSW 19 23 1020.8 - - - - - - - - -
05/12:20am 12.0 WSW 19 23 1020.9 - - - - - - - - -
05/12:10am 11.9 WSW 19 23 1020.9 - - - - - - - - -
05/12:00am 11.9 WSW 19 24 1020.9 - - - - - - - - -
 
Date/Time
EST
Temp

°C
Wind Pressure Rain
since 9am
mm
Weather Cloud Vis
km
Sea
Height
m
Swell
Dir
 
Speed
knots
Gust
knots
hPa Trend Height
m
Period
s
Dir
04/11:50pm 12.0 WSW 20 24 1021.0 - - - - - - - - -
04/11:40pm 11.9 WSW 20 24 1021.0 - - - - - - - - -
04/11:30pm 11.8 WSW 20 24 1021.1 - - - - - - - - -
04/11:20pm 11.9 WSW 18 22 1021.3 - - - - - - - - -
04/11:10pm 11.8 WSW 18 21 1021.3 - - - - - - - - -
04/11:00pm 11.8 WSW 18 21 1021.3 - - - - - - - - -
04/10:50pm 11.9 WSW 18 21 1021.4 - - - - - - - - -
04/10:40pm 12.0 WSW 17 20 1021.5 - - - - - - - - -
04/10:30pm 12.2 WSW 18 22 1021.5 - - - - - - - - -
04/10:20pm 11.8 WSW 18 24 1021.5 - - - - - - - - -
04/10:10pm 11.8 WSW 20 25 1021.5 - - - - - - - - -
04/10:00pm 11.9 WSW 20 24 1021.7 - - - - - - - - -
04/09:50pm 11.9 WSW 18 21 1021.8 - - - - - - - - -
04/09:40pm 11.8 SW 19 23 1021.7 - - - - - - - - -
04/09:30pm 11.7 SW 19 24 1021.8 - - - - - - - - -
04/09:20pm 11.7 WSW 19 23 1021.8 - - - - - - - - -
04/09:10pm 11.7 SW 19 23 1021.8 - - - - - - - - -
04/09:00pm 11.7 WSW 19 24 1021.8 - - - - - - - - -
04/08:50pm 11.7 SW 18 21 1021.8 - - - - - - - - -
04/08:40pm 11.8 SW 19 23 1021.7 - - - - - - - - -
04/08:30pm 11.9 SW 20 24 1021.7 - - - - - - - - -
04/08:20pm 12.0 SW 20 24 1021.7 - - - - - - - - -
04/08:10pm 12.1 SW 21 24 1021.7 - - - - - - - - -
04/08:00pm 12.2 WSW 21 25 1021.6 - - - - - - - - -
04/07:50pm 12.4 WSW 21 25 1021.7 - - - - - - - - -
04/07:40pm 12.4 WSW 20 25 1021.7 - - - - - - - - -
04/07:30pm 12.5 WSW 20 23 1021.8 - - - - - - - - -
04/07:20pm 12.3 WSW 20 26 1021.7 - - - - - - - - -
04/07:10pm 12.1 WSW 19 25 1021.7 - - - - - - - - -
04/07:00pm 12.0 SW 20 25 1021.6 - - - - - - - - -
04/06:50pm 11.9 SW 20 25 1021.6 - - - - - - - - -
04/06:40pm 12.1 WSW 20 23 1021.6 - - - - - - - - -
04/06:30pm 12.0 WSW 20 24 1021.5 - - - - - - - - -
04/06:20pm 12.0 WSW 20 23 1021.4 - - - - - - - - -
04/06:10pm 11.9 SW 21 26 1021.4 - - - - - - - - -
04/06:00pm 11.8 SW 20 26 1021.4 - - - - - - - - -
04/05:50pm 11.7 SW 22 26 1021.2 - - - - - - - - -
04/05:40pm 11.7 SW 21 26 1021.2 - - - - - - - - -
04/05:30pm 11.7 SW 20 25 1021.2 - - - - - - - - -
04/05:10pm 11.8 SW 21 26 1021.0 - - - - - - - - -
04/05:00pm 11.9 SW 19 24 1021.0 - - - - - - - - -
04/04:50pm 12.0 SW 19 23 1021.0 - - - - - - - - -
04/04:40pm 12.1 SW 20 24 1020.9 - - - - - - - - -
04/04:30pm 11.9 SW 18 24 1021.0 - - - - - - - - -
04/04:20pm 11.9 SW 18 22 1021.0 - - - - - - - - -
04/04:10pm 12.0 SW 19 22 1021.0 - - - - - - - - -
04/04:00pm 12.2 SW 19 23 1020.9 - - - - - - - - -
04/03:50pm 12.5 SW 20 23 1020.8 - - - - - - - - -
04/03:40pm 12.3 SW 18 22 1020.9 - - - - - - - - -
04/03:30pm 12.3 SW 19 22 1020.8 - - - - - - - - -
04/03:20pm 12.3 SW 19 23 1020.7 - - - - - - - - -
04/03:10pm 12.3 SW 20 24 1020.6 - - - - - - - - -
04/03:00pm 12.4 SW 20 25 1020.6 - - - - - - - - -
04/02:50pm 12.4 SW 18 23 1020.7 - - - - - - - - -
04/02:40pm 12.4 SW 18 21 1020.8 - - - - - - - - -
04/02:30pm 12.4 SW 17 21 1020.8 - - - - - - - - -
04/02:20pm 12.5 SW 18 21 1020.7 - - - - - - - - -
04/02:10pm 12.6 SW 18 21 1020.8 - - - - - - - - -
04/02:00pm 12.6 SW 17 21 1020.9 - - - - - - - - -
04/01:50pm 12.7 SW 17 21 1020.9 - - - - - - - - -
04/01:40pm 12.6 SW 18 22 1020.8 - - - - - - - - -
04/01:30pm 12.6 SW 17 21 1020.9 - - - - - - - - -
04/01:20pm 12.6 SW 17 22 1020.9 - - - - - - - - -
04/01:10pm 12.5 SW 16 20 1021.0 - - - - - - - - -
04/01:00pm 12.5 SW 19 23 1021.0 - - - - - - - - -
04/12:50pm 12.4 SW 18 22 1021.1 - - - - - - - - -
04/12:40pm 12.4 SW 19 23 1021.2 - - - - - - - - -
04/12:30pm 12.5 SW 17 22 1021.3 - - - - - - - - -
04/12:20pm 12.3 SW 18 22 1021.4 - - - - - - - - -
04/12:10pm 12.3 SW 19 22 1021.4 - - - - - - - - -
04/12:00pm 12.4 SW 19 23 1021.5 - - - - - - - - -
04/11:50am 12.5 SW 18 22 1021.5 - - - - - - - - -
04/11:40am 12.5 SW 18 22 1021.7 - - - - - - - - -
04/11:30am 12.4 SW 18 22 1021.8 - - - - - - - - -
04/11:20am 12.4 SW 17 21 1022.0 - - - - - - - - -
04/11:10am 12.5 SW 17 21 1022.1 - - - - - - - - -
04/11:00am 12.6 SW 18 22 1022.1 - - - - - - - - -
04/10:50am 12.8 SW 19 24 1022.1 - - - - - - - - -
04/10:40am 12.7 SW 18 22 1022.3 - - - - - - - - -
04/10:30am 12.6 SW 18 22 1022.3 - - - - - - - - -
04/10:20am 12.6 SW 18 21 1022.5 - - - - - - - - -
04/10:10am 12.6 SW 17 21 1022.6 - - - - - - - - -
04/10:00am 12.6 SW 16 19 1022.7 - - - - - - - - -
04/09:50am 12.6 SW 17 20 1022.7 - - - - - - - - -
04/09:40am 12.6 SW 16 19 1022.7 - - - - - - - - -
04/09:30am 12.6 SW 16 19 1022.7 - - - - - - - - -
04/09:20am 12.6 SW 16 19 1022.7 - - - - - - - - -
04/09:10am 12.7 SW 16 18 1022.7 - - - - - - - - -
04/09:00am 12.4 SW 15 19 1022.6 - - - - - - - - -
04/08:50am 12.1 WSW 15 18 1022.6 - - - - - - - - -
04/08:40am 11.9 SW 14 18 1022.6 - - - - - - - - -
04/08:30am 11.8 SW 15 18 1022.7 - - - - - - - - -
04/08:20am 11.8 SW 15 17 1022.6 - - - - - - - - -
04/08:10am 12.0 WSW 14 18 1022.7 - - - - - - - - -
04/08:00am 12.0 WSW 15 19 1022.6 - - - - - - - - -
04/07:50am 11.9 WSW 15 18 1022.6 - - - - - - - - -
04/07:40am 11.7 WSW 15 19 1022.5 - - - - - - - - -
04/07:30am 11.7 WSW 16 19 1022.4 - - - - - - - - -
04/07:20am 11.9 WSW 14 18 1022.4 - - - - - - - - -
04/07:10am 11.9 WSW 14 16 1022.4 - - - - - - - - -
04/07:00am 11.7 WSW 14 17 1022.4 - - - - - - - - -
04/06:50am 11.5 WSW 14 17 1022.3 - - - - - - - - -
04/06:40am 11.5 WSW 15 17 1022.2 - - - - - - - - -
04/06:30am 11.3 WSW 13 17 1022.1 - - - - - - - - -
04/06:20am 11.1 WSW 14 17 1022.0 - - - - - - - - -
04/06:10am 11.1 WSW 12 16 1021.9 - - - - - - - - -
04/06:00am 11.0 WSW 14 16 1021.8 - - - - - - - - -
04/05:50am 11.0 WSW 14 16 1021.7 - - - - - - - - -
04/05:40am 11.1 WSW 14 18 1021.6 - - - - - - - - -
04/05:30am 11.0 WSW 14 17 1021.5 - - - - - - - - -
04/05:20am 10.9 WSW 14 16 1021.5 - - - - - - - - -
04/05:10am 11.0 WSW 14 16 1021.5 - - - - - - - - -
04/05:00am 11.0 WSW 13 16 1021.5 - - - - - - - - -
04/04:50am 11.0 WSW 13 15 1021.5 - - - - - - - - -
04/04:40am 11.0 WSW 6 13 1021.6 - - - - - - - - -
04/04:30am 11.1 SW 3 6 1021.7 - - - - - - - - -
04/04:20am 11.3 W 2 6 1021.7 - - - - - - - - -
04/04:10am 11.4 W 5 7 1021.6 - - - - - - - - -
04/04:00am 11.4 W 7 9 1021.5 - - - - - - - - -
04/03:50am 11.3 W 7 9 1021.3 - - - - - - - - -
04/03:40am 11.5 W 7 9 1021.1 - - - - - - - - -
04/03:30am 11.5 W 6 8 1021.1 - - - - - - - - -
04/03:20am 11.7 W 7 9 1021.1 - - - - - - - - -
04/03:00am 12.4 W 6 9 1021.0 - - - - - - - - -
04/02:50am 12.3 W 1 6 1021.0 - - - - - - - - -
04/02:30am 12.5 CALM 0 0 1020.9 - - - - - - - - -
04/02:20am 12.5 CALM 0 0 1020.8 - - - - - - - - -
04/02:10am 12.5 CALM 0 1 1020.8 - - - - - - - - -
04/02:00am 12.5 CALM 0 0 1020.8 - - - - - - - - -
04/01:50am 12.4 ENE 1 3 1020.8 - - - - - - - - -
04/01:40am 12.3 ENE 1 3 1020.9 - - - - - - - - -
04/01:30am 12.3 E 1 4 1020.9 - - - - - - - - -
04/01:20am 12.3 E 2 5 1020.9 - - - - - - - - -
04/01:10am 12.3 E 3 5 1020.9 - - - - - - - - -
04/01:00am 12.3 E 4 7 1020.8 - - - - - - - - -
04/12:50am 12.4 E 5 8 1020.7 - - - - - - - - -
04/12:40am 12.3 E 6 8 1020.7 - - - - - - - - -
04/12:30am 12.4 E 6 9 1020.8 - - - - - - - - -
04/12:20am 12.4 E 6 9 1020.7 - - - - - - - - -
04/12:10am 12.4 E 7 9 1020.6 - - - - - - - - -
04/12:00am 12.4 E 6 8 1020.7 - - - - - - - - -
 
Date/Time
EST
Temp

°C
Wind Pressure Rain
since 9am
mm
Weather Cloud Vis
km
Sea
Height
m
Swell
Dir
 
Speed
knots
Gust
knots
hPa Trend Height
m
Period
s
Dir
03/11:50pm 12.4 E 7 9 1020.6 - - - - - - - - -
03/11:40pm 12.4 E 8 10 1020.7 - - - - - - - - -
03/11:30pm 12.4 E 7 9 1020.6 - - - - - - - - -
03/11:20pm 12.5 E 8 12 1020.5 - - - - - - - - -
03/11:10pm 12.5 E 8 11 1020.4 - - - - - - - - -
03/11:00pm 12.3 E 10 13 1020.2 - - - - - - - - -
03/10:50pm 12.4 E 11 15 1020.2 - - - - - - - - -
03/10:40pm 12.4 E 12 14 1020.2 - - - - - - - - -
03/10:30pm 12.3 ESE 12 14 1020.2 - - - - - - - - -
03/10:20pm 12.4 ESE 11 13 1020.2 - - - - - - - - -
03/10:10pm 12.4 ESE 10 13 1020.2 - - - - - - - - -
03/10:00pm 12.5 ESE 9 12 1020.2 - - - - - - - - -
03/09:50pm 12.4 ESE 10 14 1020.1 - - - - - - - - -
03/09:40pm 12.5 E 11 14 1019.9 - - - - - - - - -
03/09:30pm 12.5 ESE 11 14 1019.8 - - - - - - - - -
03/09:20pm 12.5 ESE 12 16 1019.7 - - - - - - - - -
03/09:10pm 12.5 ESE 14 18 1019.5 - - - - - - - - -
03/09:00pm 12.5 ESE 16 20 1019.4 - - - - - - - - -
03/08:50pm 12.4 ESE 16 19 1019.3 - - - - - - - - -
03/08:40pm 12.5 ESE 17 20 1019.3 - - - - - - - - -
03/08:30pm 12.4 ESE 17 19 1019.3 - - - - - - - - -
03/08:20pm 12.5 ESE 15 18 1019.3 - - - - - - - - -
03/08:10pm 12.5 ESE 16 18 1019.3 - - - - - - - - -
03/08:00pm 12.6 ESE 16 19 1019.3 - - - - - - - - -
03/07:50pm 12.7 ESE 14 17 1019.3 - - - - - - - - -
03/07:40pm 12.7 ESE 15 18 1019.2 - - - - - - - - -
03/07:30pm 12.8 ESE 15 17 1019.1 - - - - - - - - -
03/07:20pm 12.8 ESE 15 20 1019.0 - - - - - - - - -
03/07:10pm 12.9 ESE 15 17 1018.9 - - - - - - - - -
03/07:00pm 12.9 ESE 16 18 1018.9 - - - - - - - - -
03/06:50pm 13.0 SE 15 19 1018.8 - - - - - - - - -
03/06:40pm 13.1 ESE 15 18 1018.6 - - - - - - - - -
03/06:30pm 13.0 SE 16 18 1018.5 - - - - - - - - -
03/06:20pm 13.1 ESE 16 19 1018.2 - - - - - - - - -
03/06:10pm 13.1 SE 17 19 1018.1 - - - - - - - - -
03/06:00pm 13.2 ESE 16 20 1017.8 - - - - - - - - -
03/05:50pm 13.1 SE 17 20 1017.7 - - - - - - - - -
03/05:40pm 13.2 ESE 18 21 1017.5 - - - - - - - - -
03/05:30pm 13.2 SE 16 19 1017.4 - - - - - - - - -
03/05:20pm 13.2 SE 17 19 1017.2 - - - - - - - - -
03/05:10pm 13.1 SE 17 21 1017.0 - - - - - - - - -
03/05:00pm 13.2 SE 18 21 1016.8 - - - - - - - - -
03/04:50pm 13.1 SE 16 19 1016.5 - - - - - - - - -
03/04:40pm 13.1 SE 17 21 1016.5 - - - - - - - - -
03/04:30pm 13.2 SE 18 21 1016.2 - - - - - - - - -
03/04:20pm 13.3 SE 16 20 1016.1 - - - - - - - - -
03/04:10pm 13.2 SE 18 22 1015.8 - - - - - - - - -
03/04:00pm 13.2 SE 19 21 1015.7 - - - - - - - - -
03/03:40pm 13.3 SE 18 21 1015.3 - - - - - - - - -
03/03:30pm 13.4 SSE 17 20 1015.1 - - - - - - - - -
03/03:20pm 13.5 SE 17 20 1014.9 - - - - - - - - -
03/03:10pm 13.5 SE 17 21 1014.8 - - - - - - - - -
03/03:00pm 13.5 SE 17 21 1014.6 - - - - - - - - -
03/02:50pm 13.6 SSE 16 20 1014.5 - - - - - - - - -
03/02:40pm 13.6 SSE 15 20 1014.2 - - - - - - - - -
03/02:30pm 13.6 SSE 18 21 1014.1 - - - - - - - - -
03/02:20pm 13.7 SSE 18 21 1013.8 - - - - - - - - -
03/02:10pm 13.6 SE 19 22 1013.6 - - - - - - - - -
03/02:00pm 13.7 SE 18 23 1013.3 - - - - - - - - -
03/01:50pm 13.7 SE 20 23 1013.0 - - - - - - - - -
03/01:40pm 13.8 SE 19 22 1012.8 - - - - - - - - -
03/01:30pm 13.9 SSE 18 22 1012.7 - - - - - - - - -
03/01:20pm 13.9 SSE 14 18 1012.5 - - - - - - - - -
03/01:10pm 13.8 SSE 15 17 1012.4 - - - - - - - - -
03/01:00pm 13.7 SSE 13 22 1012.2 - - - - - - - - -
03/12:50pm 13.5 SSE 13 16 1012.0 - - - - - - - - -
03/12:40pm 13.4 S 14 17 1011.9 - - - - - - - - -
03/12:30pm 13.2 S 14 16 1011.8 - - - - - - - - -
03/12:20pm 13.1 S 14 17 1011.7 - - - - - - - - -
03/12:10pm 13.1 S 16 18 1011.9 - - - - - - - - -
03/12:00pm 13.2 S 16 20 1011.9 - - - - - - - - -
03/11:50am 13.2 S 18 20 1011.9 - - - - - - - - -
03/11:40am 13.3 S 19 22 1011.9 - - - - - - - - -
03/11:30am 13.3 S 19 23 1011.9 - - - - - - - - -
03/11:20am 13.4 S 18 21 1011.9 - - - - - - - - -
03/11:10am 13.4 S 19 22 1011.8 - - - - - - - - -
03/11:00am 13.5 S 18 25 1011.7 - - - - - - - - -
03/10:50am 13.5 S 21 25 1011.8 - - - - - - - - -
03/10:40am 13.5 S 20 23 1011.8 - - - - - - - - -
03/10:30am 13.5 S 21 26 1011.7 - - - - - - - - -
03/10:20am 13.5 S 21 26 1011.5 - - - - - - - - -
03/10:10am 13.5 S 20 23 1011.3 - - - - - - - - -
03/10:00am 13.5 SSE 19 22 1011.2 - - - - - - - - -
03/09:50am 13.5 SSE 17 21 1011.1 - - - - - - - - -
03/09:40am 13.4 SSE 17 19 1010.9 - - - - - - - - -
03/09:30am 13.3 SSE 15 18 1010.7 - - - - - - - - -
03/09:20am 13.5 SSE 18 20 1010.7 - - - - - - - - -
03/09:10am 13.5 SSE 17 20 1010.5 - - - - - - - - -
03/09:00am 13.6 SSE 18 22 1010.2 - - - - - - - - -
03/08:50am 13.7 SSE 19 22 1010.1 - - - - - - - - -
03/08:40am 13.6 SSE 17 20 1009.7 - - - - - - - - -
03/08:30am 13.5 SSE 17 21 1009.5 - - - - - - - - -
03/08:20am 13.6 SSE 17 20 1009.4 - - - - - - - - -
03/08:10am 13.5 SSE 19 24 1009.2 - - - - - - - - -
03/08:00am 13.4 SSE 19 23 1009.1 - - - - - - - - -
03/07:50am 13.5 SSE 20 24 1008.8 - - - - - - - - -
03/07:40am 13.5 SSE 21 31 1008.6 - - - - - - - - -
03/07:30am 13.5 SSE 21 25 1008.5 - - - - - - - - -
03/07:20am 13.5 SSE 20 26 1008.2 - - - - - - - - -
03/07:10am 13.4 SSE 20 24 1008.1 - - - - - - - - -
03/07:00am 13.3 SSE 23 27 1007.9 - - - - - - - - -
03/06:50am 13.4 SSE 23 28 1007.7 - - - - - - - - -
03/06:40am 13.6 SSE 24 29 1007.6 - - - - - - - - -
03/06:30am 13.7 SSE 23 27 1007.4 - - - - - - - - -
03/06:20am 13.9 SSE 22 26 1007.3 - - - - - - - - -
03/06:10am 13.9 SSE 21 26 1007.1 - - - - - - - - -
03/06:00am 13.8 SSE 22 26 1006.9 - - - - - - - - -
03/05:50am 13.9 SSE 22 27 1006.7 - - - - - - - - -
03/05:40am 13.9 SSE 22 26 1006.5 - - - - - - - - -
03/05:30am 14.1 SSE 21 26 1006.3 - - - - - - - - -
03/05:20am 14.1 SSE 20 23 1006.0 - - - - - - - - -
03/05:10am 14.1 SSE 20 24 1005.8 - - - - - - - - -
03/05:00am 14.2 SSE 19 24 1005.8 - - - - - - - - -
03/04:50am 14.2 SSE 19 23 1005.8 - - - - - - - - -
03/04:40am 14.3 SSE 18 22 1006.0 - - - - - - - - -
03/04:30am 14.3 SSE 18 23 1006.0 - - - - - - - - -
03/04:20am 14.4 SSE 18 21 1005.9 - - - - - - - - -
03/04:10am 14.4 SE 18 20 1005.8 - - - - - - - - -
03/04:00am 14.4 SE 18 20 1005.7 - - - - - - - - -
03/03:50am 14.3 SE 16 18 1005.7 - - - - - - - - -
03/03:40am 14.3 SE 15 17 1005.7 - - - - - - - - -
03/03:30am 14.3 SE 14 16 1005.8 - - - - - - - - -
03/03:20am 14.4 SSE 13 16 1005.8 - - - - - - - - -
03/03:10am 14.4 SSE 12 15 1005.7 - - - - - - - - -
03/03:00am 14.3 SSE 11 13 1005.6 - - - - - - - - -
03/02:50am 14.3 SSE 10 13 1005.4 - - - - - - - - -
03/02:40am 14.3 SSE 10 13 1005.3 - - - - - - - - -
03/02:30am 14.3 SSE 10 12 1005.2 - - - - - - - - -
03/02:20am 14.4 SSE 11 13 1005.1 - - - - - - - - -
03/02:10am 14.4 SSE 11 13 1005.1 - - - - - - - - -
03/02:00am 14.4 SE 10 12 1005.3 - - - - - - - - -
03/01:20am 14.4 SSE 6 8 1005.5 - - - - - - - - -
03/01:10am 14.3 SSE 5 6 1005.7 - - - - - - - - -
03/01:00am 14.4 SSE 3 5 1005.8 - - - - - - - - -
03/12:50am 14.3 SSE 4 5 1005.9 - - - - - - - - -
 
Date/Time
EST
Temp

°C
Wind Pressure Rain
since 9am
mm
Weather Cloud Vis
km
Sea
Height
m
Swell
Dir
 
Speed
knots
Gust
knots
hPa Trend Height
m
Period
s
Dir
02/08:40pm 15.3 NE 8 9 1007.8 - - - - - - - - -
02/08:30pm 15.6 NE 6 8 1007.9 - - - - - - - - -
02/08:20pm 15.5 NE 6 7 1008.0 - - - - - - - - -
02/07:50pm 15.2 NE 5 7 1008.1 - - - - - - - - -
02/06:20pm 14.9 NE 3 5 1008.3 - - - - - - - - -
02/05:40pm 14.6 NE 5 7 1008.3 - - - - - - - - -
02/05:30pm 14.6 NE 5 8 1008.4 - - - - - - - - -
02/05:20pm 14.6 NE 8 9 1008.5 - - - - - - - - -
02/05:10pm 14.6 ENE 7 9 1008.5 - - - - - - - - -
02/05:00pm 14.5 ENE 8 11 1008.5 - - - - - - - - -
02/04:50pm 14.5 ENE 9 11 1008.7 - - - - - - - - -
02/04:40pm 14.4 ENE 9 15 1008.6 - - - - - - - - -
02/04:30pm 14.3 ENE 11 15 1008.5 - - - - - - - - -
02/04:20pm 14.2 ENE 13 16 1008.5 - - - - - - - - -
02/04:10pm 14.1 ENE 11 15 1008.5 - - - - - - - - -
02/04:00pm 14.0 ENE 13 17 1008.3 - - - - - - - - -
02/03:50pm 14.0 ENE 14 17 1008.3 - - - - - - - - -
02/03:40pm 14.0 ENE 13 16 1008.5 - - - - - - - - -
02/03:30pm 13.9 ENE 14 16 1008.6 - - - - - - - - -
02/03:20pm 13.8 ENE 13 15 1008.7 - - - - - - - - -
02/03:10pm 13.9 ENE 13 15 1008.8 - - - - - - - - -
02/03:00pm 13.9 ENE 13 15 1009.0 - - - - - - - - -
02/02:50pm 13.9 ENE 12 14 1009.1 - - - - - - - - -
02/02:40pm 13.9 ENE 13 15 1009.2 - - - - - - - - -
02/02:30pm 13.9 ENE 12 15 1009.4 - - - - - - - - -
02/02:20pm 13.9 ENE 13 15 1009.4 - - - - - - - - -
02/02:10pm 13.8 ENE 13 15 1009.3 - - - - - - - - -
02/02:00pm 13.8 ENE 11 13 1009.5 - - - - - - - - -
02/01:50pm 13.7 ENE 11 13 1009.6 - - - - - - - - -
02/01:40pm 13.6 ENE 9 12 1009.8 - - - - - - - - -
02/01:30pm 13.7 ENE 6 9 1010.1 - - - - - - - - -
02/01:20pm 13.6 ENE 6 9 1010.1 - - - - - - - - -
02/01:10pm 13.5 NE 7 9 1010.3 - - - - - - - - -
02/01:00pm 13.5 NE 7 9 1010.5 - - - - - - - - -
02/12:50pm 13.5 NE 7 9 1010.7 - - - - - - - - -
02/12:40pm 13.5 NE 7 9 1010.9 - - - - - - - - -
02/12:30pm 13.5 NE 8 10 1011.0 - - - - - - - - -
02/12:20pm 13.6 NE 8 10 1011.2 - - - - - - - - -
02/12:10pm 13.7 NE 7 9 1011.4 - - - - - - - - -
02/12:00pm 14.0 NNE 7 8 1011.7 - - - - - - - - -
02/11:50am 14.2 NNE 7 8 1011.8 - - - - - - - - -
02/11:40am 14.3 NNE 7 8 1011.9 - - - - - - - - -
02/11:30am 14.1 NNE 7 10 1012.0 - - - - - - - - -
02/11:20am 13.8 NNE 8 10 1012.1 - - - - - - - - -
02/11:10am 13.8 NNE 7 9 1012.3 - - - - - - - - -
02/11:00am 14.1 NNE 8 9 1012.4 - - - - - - - - -
02/10:50am 13.9 NNE 8 10 1012.6 - - - - - - - - -
02/10:40am 13.8 NNE 8 9 1012.7 - - - - - - - - -
02/10:30am 13.7 NNE 8 10 1012.9 - - - - - - - - -
02/10:20am 13.6 NNE 9 11 1013.1 - - - - - - - - -
02/10:10am 13.3 NNE 9 11 1013.2 - - - - - - - - -
02/10:00am 13.3 NNE 9 11 1013.4 - - - - - - - - -
02/09:50am 13.3 NNE 9 12 1013.4 - - - - - - - - -
02/09:40am 13.3 NNE 9 11 1013.4 - - - - - - - - -
02/09:30am 13.3 NNE 9 11 1013.5 - - - - - - - - -

Other Formats:

Comma delimited format used in spreadsheet applications
http://www.bom.gov.au/fwo/IDV60701/IDV60701.55039.axf

JavaScript Object Notation format (JSON) in row-major order
http://www.bom.gov.au/fwo/IDV60701/IDV60701.55039.json